sensor_id;sensor_type;location;lat;lon;timestamp;temperature;humidity
23801;DHT22;12081;48.614;10.226;2023-10-31T00:02:39;10.00;99.90
23801;DHT22;12081;48.614;10.226;2023-10-31T00:05:23;10.00;99.90
23801;DHT22;12081;48.614;10.226;2023-10-31T00:08:07;10.00;99.90
23801;DHT22;12081;48.614;10.226;2023-10-31T00:10:51;10.00;99.90
23801;DHT22;12081;48.614;10.226;2023-10-31T00:13:36;10.00;99.90
23801;DHT22;12081;48.614;10.226;2023-10-31T00:16:19;10.00;99.90
23801;DHT22;12081;48.614;10.226;2023-10-31T00:19:03;10.00;99.90
23801;DHT22;12081;48.614;10.226;2023-10-31T00:21:48;10.50;99.90
23801;DHT22;12081;48.614;10.226;2023-10-31T00:24:32;10.10;99.90
23801;DHT22;12081;48.614;10.226;2023-10-31T00:27:16;10.20;99.90
23801;DHT22;12081;48.614;10.226;2023-10-31T00:30:00;10.30;99.90
23801;DHT22;12081;48.614;10.226;2023-10-31T00:32:44;10.10;99.90
23801;DHT22;12081;48.614;10.226;2023-10-31T00:35:29;11.40;99.90
23801;DHT22;12081;48.614;10.226;2023-10-31T00:38:14;9.90;99.90
23801;DHT22;12081;48.614;10.226;2023-10-31T00:40:59;9.90;99.90
23801;DHT22;12081;48.614;10.226;2023-10-31T00:43:43;9.80;99.90
23801;DHT22;12081;48.614;10.226;2023-10-31T00:46:27;9.80;99.90
23801;DHT22;12081;48.614;10.226;2023-10-31T00:49:11;10.80;99.90
23801;DHT22;12081;48.614;10.226;2023-10-31T00:51:56;9.80;99.90
23801;DHT22;12081;48.614;10.226;2023-10-31T00:54:40;10.50;99.90
23801;DHT22;12081;48.614;10.226;2023-10-31T00:57:24;10.00;99.90
23801;DHT22;12081;48.614;10.226;2023-10-31T01:00:08;9.80;99.90
23801;DHT22;12081;48.614;10.226;2023-10-31T01:02:53;9.80;99.90
23801;DHT22;12081;48.614;10.226;2023-10-31T01:05:38;11.20;99.90
23801;DHT22;12081;48.614;10.226;2023-10-31T01:08:22;9.90;99.90
23801;DHT22;12081;48.614;10.226;2023-10-31T01:11:06;9.70;99.90
23801;DHT22;12081;48.614;10.226;2023-10-31T01:13:50;9.60;99.90
23801;DHT22;12081;48.614;10.226;2023-10-31T01:16:34;9.60;99.90
23801;DHT22;12081;48.614;10.226;2023-10-31T01:19:19;9.60;99.90
23801;DHT22;12081;48.614;10.226;2023-10-31T01:22:03;10.20;99.90
23801;DHT22;12081;48.614;10.226;2023-10-31T01:24:47;9.60;99.90
23801;DHT22;12081;48.614;10.226;2023-10-31T01:27:32;9.90;99.90
23801;DHT22;12081;48.614;10.226;2023-10-31T01:30:16;9.60;99.90
23801;DHT22;12081;48.614;10.226;2023-10-31T01:33:00;9.60;99.90
23801;DHT22;12081;48.614;10.226;2023-10-31T01:35:44;9.60;99.90
23801;DHT22;12081;48.614;10.226;2023-10-31T01:38:28;9.60;99.90
23801;DHT22;12081;48.614;10.226;2023-10-31T01:41:12;9.60;99.90
23801;DHT22;12081;48.614;10.226;2023-10-31T01:43:56;9.90;99.90
23801;DHT22;12081;48.614;10.226;2023-10-31T01:46:41;9.60;99.90
23801;DHT22;12081;48.614;10.226;2023-10-31T01:49:25;9.60;99.90
23801;DHT22;12081;48.614;10.226;2023-10-31T01:52:09;9.60;99.90
23801;DHT22;12081;48.614;10.226;2023-10-31T01:54:54;9.60;99.90
23801;DHT22;12081;48.614;10.226;2023-10-31T01:57:38;9.60;99.90
23801;DHT22;12081;48.614;10.226;2023-10-31T02:00:22;9.60;99.90
23801;DHT22;12081;48.614;10.226;2023-10-31T02:03:07;10.10;99.90
23801;DHT22;12081;48.614;10.226;2023-10-31T02:05:51;9.50;99.90
23801;DHT22;12081;48.614;10.226;2023-10-31T02:08:35;9.40;99.90
23801;DHT22;12081;48.614;10.226;2023-10-31T02:11:20;9.40;99.90
23801;DHT22;12081;48.614;10.226;2023-10-31T02:14:04;10.10;99.90
23801;DHT22;12081;48.614;10.226;2023-10-31T02:16:48;9.40;99.90
23801;DHT22;12081;48.614;10.226;2023-10-31T02:19:32;9.30;99.90
23801;DHT22;12081;48.614;10.226;2023-10-31T02:22:16;10.90;99.90
23801;DHT22;12081;48.614;10.226;2023-10-31T02:25:00;9.20;99.90
23801;DHT22;12081;48.614;10.226;2023-10-31T02:27:44;9.20;99.90
23801;DHT22;12081;48.614;10.226;2023-10-31T02:30:28;9.20;99.90
23801;DHT22;12081;48.614;10.226;2023-10-31T02:33:13;9.20;99.90
23801;DHT22;12081;48.614;10.226;2023-10-31T02:35:57;9.20;99.90
23801;DHT22;12081;48.614;10.226;2023-10-31T02:38:41;10.70;99.90
23801;DHT22;12081;48.614;10.226;2023-10-31T02:41:25;9.20;99.90
23801;DHT22;12081;48.614;10.226;2023-10-31T02:44:09;9.20;99.90
23801;DHT22;12081;48.614;10.226;2023-10-31T02:46:53;10.10;99.90
23801;DHT22;12081;48.614;10.226;2023-10-31T02:49:37;11.00;99.90
23801;DHT22;12081;48.614;10.226;2023-10-31T02:52:21;9.20;99.90
23801;DHT22;12081;48.614;10.226;2023-10-31T02:55:05;9.20;99.90
23801;DHT22;12081;48.614;10.226;2023-10-31T02:57:50;9.20;99.90
23801;DHT22;12081;48.614;10.226;2023-10-31T03:00:34;9.60;99.90
23801;DHT22;12081;48.614;10.226;2023-10-31T03:03:18;9.10;99.90
23801;DHT22;12081;48.614;10.226;2023-10-31T03:06:02;9.60;99.90
23801;DHT22;12081;48.614;10.226;2023-10-31T03:08:48;9.10;99.90
23801;DHT22;12081;48.614;10.226;2023-10-31T03:11:32;9.00;99.90
23801;DHT22;12081;48.614;10.226;2023-10-31T03:14:16;9.10;99.90
23801;DHT22;12081;48.614;10.226;2023-10-31T03:17:01;9.20;99.90
23801;DHT22;12081;48.614;10.226;2023-10-31T03:19:45;9.10;99.90
23801;DHT22;12081;48.614;10.226;2023-10-31T03:22:29;9.10;99.90
23801;DHT22;12081;48.614;10.226;2023-10-31T03:25:13;9.10;99.90
23801;DHT22;12081;48.614;10.226;2023-10-31T03:27:57;9.00;99.90
23801;DHT22;12081;48.614;10.226;2023-10-31T03:30:41;9.70;99.90
23801;DHT22;12081;48.614;10.226;2023-10-31T03:33:25;9.30;99.90
23801;DHT22;12081;48.614;10.226;2023-10-31T03:36:09;10.90;99.90
23801;DHT22;12081;48.614;10.226;2023-10-31T03:38:53;11.60;99.90
23801;DHT22;12081;48.614;10.226;2023-10-31T03:41:38;8.90;99.90
23801;DHT22;12081;48.614;10.226;2023-10-31T03:44:22;10.80;99.90
23801;DHT22;12081;48.614;10.226;2023-10-31T03:47:06;11.80;99.90
23801;DHT22;12081;48.614;10.226;2023-10-31T03:49:50;11.30;99.90
23801;DHT22;12081;48.614;10.226;2023-10-31T03:52:37;10.00;99.90
23801;DHT22;12081;48.614;10.226;2023-10-31T03:55:16;12.20;99.90
23801;DHT22;12081;48.614;10.226;2023-10-31T04:00:34;8.80;99.90
23801;DHT22;12081;48.614;10.226;2023-10-31T04:03:18;11.20;99.90
23801;DHT22;12081;48.614;10.226;2023-10-31T04:06:03;9.30;99.90
23801;DHT22;12081;48.614;10.226;2023-10-31T04:08:47;9.00;99.90
23801;DHT22;12081;48.614;10.226;2023-10-31T04:11:31;10.40;99.90
23801;DHT22;12081;48.614;10.226;2023-10-31T04:14:15;10.40;99.90
23801;DHT22;12081;48.614;10.226;2023-10-31T04:17:00;11.70;99.90
23801;DHT22;12081;48.614;10.226;2023-10-31T04:19:44;12.20;99.90
23801;DHT22;12081;48.614;10.226;2023-10-31T04:22:28;12.00;99.90
23801;DHT22;12081;48.614;10.226;2023-10-31T04:25:13;10.90;99.90
23801;DHT22;12081;48.614;10.226;2023-10-31T04:27:57;8.90;99.90
23801;DHT22;12081;48.614;10.226;2023-10-31T04:30:41;9.10;99.90
23801;DHT22;12081;48.614;10.226;2023-10-31T04:33:26;10.90;99.90
23801;DHT22;12081;48.614;10.226;2023-10-31T04:36:10;10.90;99.90
23801;DHT22;12081;48.614;10.226;2023-10-31T04:38:54;12.40;99.90
23801;DHT22;12081;48.614;10.226;2023-10-31T04:41:39;10.40;99.90
23801;DHT22;12081;48.614;10.226;2023-10-31T04:44:23;9.20;99.90
23801;DHT22;12081;48.614;10.226;2023-10-31T04:47:08;9.20;99.90
23801;DHT22;12081;48.614;10.226;2023-10-31T04:49:52;10.10;99.90
23801;DHT22;12081;48.614;10.226;2023-10-31T04:52:36;11.60;99.90
23801;DHT22;12081;48.614;10.226;2023-10-31T04:55:20;11.40;99.90
23801;DHT22;12081;48.614;10.226;2023-10-31T04:58:04;9.20;99.90
23801;DHT22;12081;48.614;10.226;2023-10-31T05:00:49;10.70;99.90
23801;DHT22;12081;48.614;10.226;2023-10-31T05:03:33;11.90;99.90
23801;DHT22;12081;48.614;10.226;2023-10-31T05:06:21;9.00;99.90
23801;DHT22;12081;48.614;10.226;2023-10-31T05:09:06;8.90;99.90
23801;DHT22;12081;48.614;10.226;2023-10-31T05:11:50;8.70;99.90
23801;DHT22;12081;48.614;10.226;2023-10-31T05:14:35;11.80;99.90
23801;DHT22;12081;48.614;10.226;2023-10-31T05:17:19;11.30;99.90
23801;DHT22;12081;48.614;10.226;2023-10-31T05:20:04;10.70;99.90
23801;DHT22;12081;48.614;10.226;2023-10-31T05:22:48;8.90;99.90
23801;DHT22;12081;48.614;10.226;2023-10-31T05:25:32;10.90;99.90
23801;DHT22;12081;48.614;10.226;2023-10-31T05:28:17;10.30;99.90
23801;DHT22;12081;48.614;10.226;2023-10-31T05:31:01;9.50;99.90
23801;DHT22;12081;48.614;10.226;2023-10-31T05:33:45;8.90;99.90
23801;DHT22;12081;48.614;10.226;2023-10-31T05:36:30;12.20;99.90
23801;DHT22;12081;48.614;10.226;2023-10-31T05:39:14;12.00;99.90
23801;DHT22;12081;48.614;10.226;2023-10-31T05:41:59;12.10;99.90
23801;DHT22;12081;48.614;10.226;2023-10-31T05:44:44;10.00;99.90
23801;DHT22;12081;48.614;10.226;2023-10-31T05:47:28;12.00;99.90
23801;DHT22;12081;48.614;10.226;2023-10-31T05:50:13;11.20;99.90
23801;DHT22;12081;48.614;10.226;2023-10-31T05:52:57;8.60;99.90
23801;DHT22;12081;48.614;10.226;2023-10-31T05:55:41;11.40;99.90
23801;DHT22;12081;48.614;10.226;2023-10-31T05:58:25;11.20;99.90
23801;DHT22;12081;48.614;10.226;2023-10-31T06:01:09;11.30;99.90
23801;DHT22;12081;48.614;10.226;2023-10-31T06:03:54;10.80;99.90
23801;DHT22;12081;48.614;10.226;2023-10-31T06:06:38;10.80;99.90
23801;DHT22;12081;48.614;10.226;2023-10-31T06:09:23;11.90;99.90
23801;DHT22;12081;48.614;10.226;2023-10-31T06:12:07;9.10;99.90
23801;DHT22;12081;48.614;10.226;2023-10-31T06:14:51;9.00;99.90
23801;DHT22;12081;48.614;10.226;2023-10-31T06:17:35;12.00;99.90
23801;DHT22;12081;48.614;10.226;2023-10-31T06:20:20;11.20;99.90
23801;DHT22;12081;48.614;10.226;2023-10-31T06:23:05;8.50;99.90
23801;DHT22;12081;48.614;10.226;2023-10-31T06:25:49;11.20;99.90
23801;DHT22;12081;48.614;10.226;2023-10-31T06:28:33;11.20;99.90
23801;DHT22;12081;48.614;10.226;2023-10-31T06:31:19;10.00;99.90
23801;DHT22;12081;48.614;10.226;2023-10-31T06:34:04;11.70;99.90
23801;DHT22;12081;48.614;10.226;2023-10-31T06:36:48;8.80;99.90
23801;DHT22;12081;48.614;10.226;2023-10-31T06:39:33;10.10;99.90
23801;DHT22;12081;48.614;10.226;2023-10-31T06:42:17;9.70;99.90
23801;DHT22;12081;48.614;10.226;2023-10-31T06:45:02;10.80;99.90
23801;DHT22;12081;48.614;10.226;2023-10-31T06:47:46;8.50;99.90
23801;DHT22;12081;48.614;10.226;2023-10-31T06:50:30;8.80;99.90
23801;DHT22;12081;48.614;10.226;2023-10-31T06:53:16;10.00;99.90
23801;DHT22;12081;48.614;10.226;2023-10-31T06:56:01;8.60;99.90
23801;DHT22;12081;48.614;10.226;2023-10-31T06:58:45;11.30;99.90
23801;DHT22;12081;48.614;10.226;2023-10-31T07:01:29;9.40;99.90
23801;DHT22;12081;48.614;10.226;2023-10-31T07:04:13;11.30;99.90
23801;DHT22;12081;48.614;10.226;2023-10-31T07:06:58;10.30;99.90
23801;DHT22;12081;48.614;10.226;2023-10-31T07:09:42;8.50;99.90
23801;DHT22;12081;48.614;10.226;2023-10-31T07:12:26;8.50;99.90
23801;DHT22;12081;48.614;10.226;2023-10-31T07:15:10;8.80;99.90
23801;DHT22;12081;48.614;10.226;2023-10-31T07:17:54;8.50;99.90
23801;DHT22;12081;48.614;10.226;2023-10-31T07:20:39;8.50;99.90
23801;DHT22;12081;48.614;10.226;2023-10-31T07:23:23;8.50;99.90
23801;DHT22;12081;48.614;10.226;2023-10-31T07:26:07;8.60;99.90
23801;DHT22;12081;48.614;10.226;2023-10-31T07:28:51;8.60;99.90
23801;DHT22;12081;48.614;10.226;2023-10-31T07:31:35;8.60;99.90
23801;DHT22;12081;48.614;10.226;2023-10-31T07:34:22;8.60;99.90
23801;DHT22;12081;48.614;10.226;2023-10-31T07:37:06;8.70;99.90
23801;DHT22;12081;48.614;10.226;2023-10-31T07:39:50;8.60;99.90
23801;DHT22;12081;48.614;10.226;2023-10-31T07:42:35;8.60;99.90
23801;DHT22;12081;48.614;10.226;2023-10-31T07:45:19;8.70;99.90
23801;DHT22;12081;48.614;10.226;2023-10-31T07:48:03;8.70;99.90
23801;DHT22;12081;48.614;10.226;2023-10-31T07:50:47;8.60;99.90
23801;DHT22;12081;48.614;10.226;2023-10-31T07:53:31;8.90;99.90
23801;DHT22;12081;48.614;10.226;2023-10-31T07:56:19;10.30;99.90
23801;DHT22;12081;48.614;10.226;2023-10-31T07:59:07;8.70;99.90
23801;DHT22;12081;48.614;10.226;2023-10-31T08:01:54;8.70;99.90
23801;DHT22;12081;48.614;10.226;2023-10-31T08:04:38;8.70;99.90
23801;DHT22;12081;48.614;10.226;2023-10-31T08:07:22;8.80;99.90
23801;DHT22;12081;48.614;10.226;2023-10-31T08:10:07;8.80;99.90
23801;DHT22;12081;48.614;10.226;2023-10-31T08:12:51;8.90;99.90
23801;DHT22;12081;48.614;10.226;2023-10-31T08:15:35;9.00;99.90
23801;DHT22;12081;48.614;10.226;2023-10-31T08:18:22;9.00;99.90
23801;DHT22;12081;48.614;10.226;2023-10-31T08:21:07;10.40;99.90
23801;DHT22;12081;48.614;10.226;2023-10-31T08:23:51;9.10;99.90
23801;DHT22;12081;48.614;10.226;2023-10-31T08:26:35;9.20;99.90
23801;DHT22;12081;48.614;10.226;2023-10-31T08:29:19;9.30;99.90
23801;DHT22;12081;48.614;10.226;2023-10-31T08:32:04;9.40;99.90
23801;DHT22;12081;48.614;10.226;2023-10-31T08:34:48;9.50;99.90
23801;DHT22;12081;48.614;10.226;2023-10-31T08:37:33;9.60;99.90
23801;DHT22;12081;48.614;10.226;2023-10-31T08:40:17;9.70;99.90
23801;DHT22;12081;48.614;10.226;2023-10-31T08:43:01;9.70;99.90
23801;DHT22;12081;48.614;10.226;2023-10-31T08:45:48;10.50;99.90
23801;DHT22;12081;48.614;10.226;2023-10-31T08:48:32;9.70;99.90
23801;DHT22;12081;48.614;10.226;2023-10-31T08:51:17;10.40;99.90
23801;DHT22;12081;48.614;10.226;2023-10-31T08:54:01;9.70;99.90
23801;DHT22;12081;48.614;10.226;2023-10-31T08:56:45;9.80;99.90
23801;DHT22;12081;48.614;10.226;2023-10-31T08:59:29;10.00;99.90
23801;DHT22;12081;48.614;10.226;2023-10-31T09:02:14;11.30;99.90
23801;DHT22;12081;48.614;10.226;2023-10-31T09:04:58;10.20;99.90
23801;DHT22;12081;48.614;10.226;2023-10-31T09:07:42;10.50;99.90
23801;DHT22;12081;48.614;10.226;2023-10-31T09:10:26;10.30;99.90
23801;DHT22;12081;48.614;10.226;2023-10-31T09:13:10;10.50;99.90
23801;DHT22;12081;48.614;10.226;2023-10-31T09:15:54;11.90;99.90
23801;DHT22;12081;48.614;10.226;2023-10-31T09:18:38;11.50;99.90
23801;DHT22;12081;48.614;10.226;2023-10-31T09:21:22;11.50;99.90
23801;DHT22;12081;48.614;10.226;2023-10-31T09:24:07;12.60;99.90
23801;DHT22;12081;48.614;10.226;2023-10-31T09:26:52;12.10;99.90
23801;DHT22;12081;48.614;10.226;2023-10-31T09:29:36;12.20;99.90
23801;DHT22;12081;48.614;10.226;2023-10-31T09:32:20;13.30;99.90
23801;DHT22;12081;48.614;10.226;2023-10-31T09:35:04;12.80;99.90
23801;DHT22;12081;48.614;10.226;2023-10-31T09:37:49;12.30;99.90
23801;DHT22;12081;48.614;10.226;2023-10-31T09:40:36;12.10;99.90
23801;DHT22;12081;48.614;10.226;2023-10-31T09:43:20;12.50;99.90
23801;DHT22;12081;48.614;10.226;2023-10-31T09:46:05;12.00;99.90
23801;DHT22;12081;48.614;10.226;2023-10-31T09:48:50;13.20;99.90
23801;DHT22;12081;48.614;10.226;2023-10-31T09:51:35;12.80;99.90
23801;DHT22;12081;48.614;10.226;2023-10-31T09:54:19;13.50;99.90
23801;DHT22;12081;48.614;10.226;2023-10-31T09:57:04;13.40;99.90
23801;DHT22;12081;48.614;10.226;2023-10-31T09:59:49;13.60;99.90
23801;DHT22;12081;48.614;10.226;2023-10-31T10:02:33;14.00;99.90
23801;DHT22;12081;48.614;10.226;2023-10-31T10:05:18;14.90;99.90
23801;DHT22;12081;48.614;10.226;2023-10-31T10:08:04;15.20;99.90
23801;DHT22;12081;48.614;10.226;2023-10-31T10:10:50;15.40;99.90
23801;DHT22;12081;48.614;10.226;2023-10-31T10:13:35;15.40;99.90
23801;DHT22;12081;48.614;10.226;2023-10-31T10:16:30;15.30;99.90
23801;DHT22;12081;48.614;10.226;2023-10-31T10:19:16;15.10;99.90
23801;DHT22;12081;48.614;10.226;2023-10-31T10:22:01;15.00;99.90
23801;DHT22;12081;48.614;10.226;2023-10-31T10:24:45;15.00;99.90
23801;DHT22;12081;48.614;10.226;2023-10-31T10:27:30;14.90;99.90
23801;DHT22;12081;48.614;10.226;2023-10-31T10:30:15;14.60;99.90
23801;DHT22;12081;48.614;10.226;2023-10-31T10:32:59;14.90;99.90
23801;DHT22;12081;48.614;10.226;2023-10-31T10:35:44;14.70;99.90
23801;DHT22;12081;48.614;10.226;2023-10-31T10:38:28;14.70;99.90
23801;DHT22;12081;48.614;10.226;2023-10-31T10:41:17;14.40;99.90
23801;DHT22;12081;48.614;10.226;2023-10-31T10:44:07;13.70;99.90
23801;DHT22;12081;48.614;10.226;2023-10-31T10:46:54;13.30;99.90
23801;DHT22;12081;48.614;10.226;2023-10-31T10:49:42;13.00;99.90
23801;DHT22;12081;48.614;10.226;2023-10-31T10:52:35;12.80;99.90
23801;DHT22;12081;48.614;10.226;2023-10-31T10:55:25;12.60;99.90
23801;DHT22;12081;48.614;10.226;2023-10-31T10:58:26;12.30;99.90
23801;DHT22;12081;48.614;10.226;2023-10-31T11:01:12;13.10;99.90
23801;DHT22;12081;48.614;10.226;2023-10-31T11:03:59;13.50;99.90
23801;DHT22;12081;48.614;10.226;2023-10-31T11:06:44;13.20;99.90
23801;DHT22;12081;48.614;10.226;2023-10-31T11:09:32;12.00;99.90
23801;DHT22;12081;48.614;10.226;2023-10-31T11:12:18;12.60;99.90
23801;DHT22;12081;48.614;10.226;2023-10-31T11:15:05;12.80;99.90
23801;DHT22;12081;48.614;10.226;2023-10-31T11:17:51;12.20;99.90
23801;DHT22;12081;48.614;10.226;2023-10-31T11:20:36;12.90;99.90
23801;DHT22;12081;48.614;10.226;2023-10-31T11:23:21;13.00;99.90
23801;DHT22;12081;48.614;10.226;2023-10-31T11:26:07;12.50;99.90
23801;DHT22;12081;48.614;10.226;2023-10-31T11:28:52;12.60;99.90
23801;DHT22;12081;48.614;10.226;2023-10-31T11:31:37;12.80;99.90
23801;DHT22;12081;48.614;10.226;2023-10-31T11:34:21;12.90;99.90
23801;DHT22;12081;48.614;10.226;2023-10-31T11:37:19;12.80;99.90
23801;DHT22;12081;48.614;10.226;2023-10-31T11:43:01;12.50;99.90
23801;DHT22;12081;48.614;10.226;2023-10-31T11:45:47;12.40;99.90
23801;DHT22;12081;48.614;10.226;2023-10-31T11:51:30;12.00;99.90
23801;DHT22;12081;48.614;10.226;2023-10-31T11:54:15;12.40;99.90
23801;DHT22;12081;48.614;10.226;2023-10-31T11:57:00;12.10;99.90
23801;DHT22;12081;48.614;10.226;2023-10-31T11:59:44;12.80;99.90
23801;DHT22;12081;48.614;10.226;2023-10-31T12:02:28;12.30;99.90
23801;DHT22;12081;48.614;10.226;2023-10-31T12:05:12;12.50;99.90
23801;DHT22;12081;48.614;10.226;2023-10-31T12:07:58;12.50;99.90
23801;DHT22;12081;48.614;10.226;2023-10-31T12:10:42;13.30;99.90
23801;DHT22;12081;48.614;10.226;2023-10-31T12:13:26;12.50;99.90
23801;DHT22;12081;48.614;10.226;2023-10-31T12:16:10;12.50;99.90
23801;DHT22;12081;48.614;10.226;2023-10-31T12:19:04;12.40;99.90
23801;DHT22;12081;48.614;10.226;2023-10-31T12:21:49;12.30;99.90
23801;DHT22;12081;48.614;10.226;2023-10-31T12:24:34;12.00;99.90
23801;DHT22;12081;48.614;10.226;2023-10-31T12:27:18;11.80;99.90
23801;DHT22;12081;48.614;10.226;2023-10-31T12:30:02;11.70;99.90
23801;DHT22;12081;48.614;10.226;2023-10-31T12:32:55;11.60;99.90
23801;DHT22;12081;48.614;10.226;2023-10-31T12:35:41;12.10;99.90
23801;DHT22;12081;48.614;10.226;2023-10-31T12:38:26;12.00;99.90
23801;DHT22;12081;48.614;10.226;2023-10-31T12:41:11;12.20;99.90
23801;DHT22;12081;48.614;10.226;2023-10-31T12:43:55;13.80;99.90
23801;DHT22;12081;48.614;10.226;2023-10-31T12:46:41;12.40;99.90
23801;DHT22;12081;48.614;10.226;2023-10-31T12:49:25;12.40;99.90
23801;DHT22;12081;48.614;10.226;2023-10-31T12:52:10;12.60;99.90
23801;DHT22;12081;48.614;10.226;2023-10-31T12:54:55;12.60;99.90
23801;DHT22;12081;48.614;10.226;2023-10-31T12:57:39;12.50;99.90
23801;DHT22;12081;48.614;10.226;2023-10-31T13:00:34;14.60;99.90
23801;DHT22;12081;48.614;10.226;2023-10-31T13:03:19;12.50;99.90
23801;DHT22;12081;48.614;10.226;2023-10-31T13:06:16;12.30;99.90
23801;DHT22;12081;48.614;10.226;2023-10-31T13:09:01;12.10;99.90
23801;DHT22;12081;48.614;10.226;2023-10-31T13:11:47;11.80;99.90
23801;DHT22;12081;48.614;10.226;2023-10-31T13:14:32;11.60;99.90
23801;DHT22;12081;48.614;10.226;2023-10-31T13:17:17;11.40;99.90
23801;DHT22;12081;48.614;10.226;2023-10-31T13:20:01;11.40;99.90
23801;DHT22;12081;48.614;10.226;2023-10-31T13:22:47;11.80;99.90
23801;DHT22;12081;48.614;10.226;2023-10-31T13:25:32;11.60;99.90
23801;DHT22;12081;48.614;10.226;2023-10-31T13:28:16;11.60;99.90
23801;DHT22;12081;48.614;10.226;2023-10-31T13:31:00;12.10;99.90
23801;DHT22;12081;48.614;10.226;2023-10-31T13:33:44;11.80;99.90
23801;DHT22;12081;48.614;10.226;2023-10-31T13:36:28;11.80;99.90
23801;DHT22;12081;48.614;10.226;2023-10-31T13:39:13;13.20;99.90
23801;DHT22;12081;48.614;10.226;2023-10-31T13:41:57;11.90;99.90
23801;DHT22;12081;48.614;10.226;2023-10-31T13:44:41;13.40;99.90
23801;DHT22;12081;48.614;10.226;2023-10-31T13:47:25;13.50;99.90
23801;DHT22;12081;48.614;10.226;2023-10-31T13:50:09;13.70;99.90
23801;DHT22;12081;48.614;10.226;2023-10-31T13:52:55;12.90;99.90
23801;DHT22;12081;48.614;10.226;2023-10-31T13:55:41;13.10;99.90
23801;DHT22;12081;48.614;10.226;2023-10-31T13:58:25;15.20;99.90
23801;DHT22;12081;48.614;10.226;2023-10-31T14:01:09;13.70;99.90
23801;DHT22;12081;48.614;10.226;2023-10-31T14:03:53;14.90;99.90
23801;DHT22;12081;48.614;10.226;2023-10-31T14:06:37;14.80;99.90
23801;DHT22;12081;48.614;10.226;2023-10-31T14:09:21;14.80;99.90
23801;DHT22;12081;48.614;10.226;2023-10-31T14:12:06;13.00;99.90
23801;DHT22;12081;48.614;10.226;2023-10-31T14:14:51;12.70;99.90
23801;DHT22;12081;48.614;10.226;2023-10-31T14:17:35;12.70;99.90
23801;DHT22;12081;48.614;10.226;2023-10-31T14:20:19;12.80;99.90
23801;DHT22;12081;48.614;10.226;2023-10-31T14:23:04;12.10;99.90
23801;DHT22;12081;48.614;10.226;2023-10-31T14:25:48;11.90;99.90
23801;DHT22;12081;48.614;10.226;2023-10-31T14:28:32;12.60;99.90
23801;DHT22;12081;48.614;10.226;2023-10-31T14:31:17;11.70;99.90
23801;DHT22;12081;48.614;10.226;2023-10-31T14:34:01;11.30;99.90
23801;DHT22;12081;48.614;10.226;2023-10-31T14:36:45;11.40;99.90
23801;DHT22;12081;48.614;10.226;2023-10-31T14:39:30;11.00;99.90
23801;DHT22;12081;48.614;10.226;2023-10-31T14:42:14;11.00;99.90
23801;DHT22;12081;48.614;10.226;2023-10-31T14:44:58;11.00;99.90
23801;DHT22;12081;48.614;10.226;2023-10-31T14:47:43;10.90;99.90
23801;DHT22;12081;48.614;10.226;2023-10-31T14:50:27;10.90;99.90
23801;DHT22;12081;48.614;10.226;2023-10-31T14:53:12;10.80;99.90
23801;DHT22;12081;48.614;10.226;2023-10-31T14:55:56;10.70;99.90
23801;DHT22;12081;48.614;10.226;2023-10-31T14:58:40;11.60;99.90
23801;DHT22;12081;48.614;10.226;2023-10-31T15:01:24;10.60;99.90
23801;DHT22;12081;48.614;10.226;2023-10-31T15:04:08;10.50;99.90
23801;DHT22;12081;48.614;10.226;2023-10-31T15:06:54;10.50;99.90
23801;DHT22;12081;48.614;10.226;2023-10-31T15:09:39;10.50;99.90
23801;DHT22;12081;48.614;10.226;2023-10-31T15:12:23;10.60;99.90
23801;DHT22;12081;48.614;10.226;2023-10-31T15:15:07;10.60;99.90
23801;DHT22;12081;48.614;10.226;2023-10-31T15:17:51;10.50;99.90
23801;DHT22;12081;48.614;10.226;2023-10-31T15:20:35;10.50;99.90
23801;DHT22;12081;48.614;10.226;2023-10-31T15:23:20;11.00;99.90
23801;DHT22;12081;48.614;10.226;2023-10-31T15:26:04;10.50;99.90
23801;DHT22;12081;48.614;10.226;2023-10-31T15:28:48;10.40;99.90
23801;DHT22;12081;48.614;10.226;2023-10-31T15:31:32;10.40;99.90
23801;DHT22;12081;48.614;10.226;2023-10-31T15:34:16;10.40;99.90
23801;DHT22;12081;48.614;10.226;2023-10-31T15:37:00;10.40;99.90
23801;DHT22;12081;48.614;10.226;2023-10-31T15:39:46;10.30;99.90
23801;DHT22;12081;48.614;10.226;2023-10-31T15:42:32;10.20;99.90
23801;DHT22;12081;48.614;10.226;2023-10-31T15:45:16;10.20;99.90
23801;DHT22;12081;48.614;10.226;2023-10-31T15:48:00;10.00;99.90
23801;DHT22;12081;48.614;10.226;2023-10-31T15:50:44;9.80;99.90
23801;DHT22;12081;48.614;10.226;2023-10-31T15:53:28;9.70;99.90
23801;DHT22;12081;48.614;10.226;2023-10-31T15:56:12;9.60;99.90
23801;DHT22;12081;48.614;10.226;2023-10-31T15:58:56;9.50;99.90
23801;DHT22;12081;48.614;10.226;2023-10-31T16:01:40;10.20;99.90
23801;DHT22;12081;48.614;10.226;2023-10-31T16:04:26;9.40;99.90
23801;DHT22;12081;48.614;10.226;2023-10-31T16:07:12;9.40;99.90
23801;DHT22;12081;48.614;10.226;2023-10-31T16:09:56;9.20;99.90
23801;DHT22;12081;48.614;10.226;2023-10-31T16:12:40;9.20;99.90
23801;DHT22;12081;48.614;10.226;2023-10-31T16:15:25;9.20;99.90
23801;DHT22;12081;48.614;10.226;2023-10-31T16:18:09;9.10;99.90
23801;DHT22;12081;48.614;10.226;2023-10-31T16:20:54;9.10;99.90
23801;DHT22;12081;48.614;10.226;2023-10-31T16:23:38;9.10;99.90
23801;DHT22;12081;48.614;10.226;2023-10-31T16:26:22;9.10;99.90
23801;DHT22;12081;48.614;10.226;2023-10-31T16:29:06;9.10;99.90
23801;DHT22;12081;48.614;10.226;2023-10-31T16:32:01;9.10;99.90
23801;DHT22;12081;48.614;10.226;2023-10-31T16:34:46;9.20;99.90
23801;DHT22;12081;48.614;10.226;2023-10-31T16:37:30;9.20;99.90
23801;DHT22;12081;48.614;10.226;2023-10-31T16:40:15;9.20;99.90
23801;DHT22;12081;48.614;10.226;2023-10-31T16:42:59;9.20;99.90
23801;DHT22;12081;48.614;10.226;2023-10-31T16:45:43;9.20;99.90
23801;DHT22;12081;48.614;10.226;2023-10-31T16:48:28;9.20;99.90
23801;DHT22;12081;48.614;10.226;2023-10-31T16:51:19;9.20;99.90
23801;DHT22;12081;48.614;10.226;2023-10-31T16:54:04;10.40;99.90
23801;DHT22;12081;48.614;10.226;2023-10-31T16:56:48;9.20;99.90
23801;DHT22;12081;48.614;10.226;2023-10-31T16:59:32;9.90;99.90
23801;DHT22;12081;48.614;10.226;2023-10-31T17:02:16;9.30;99.90
23801;DHT22;12081;48.614;10.226;2023-10-31T17:05:02;9.30;99.90
23801;DHT22;12081;48.614;10.226;2023-10-31T17:07:47;9.30;99.90
23801;DHT22;12081;48.614;10.226;2023-10-31T17:10:31;9.30;99.90
23801;DHT22;12081;48.614;10.226;2023-10-31T17:13:15;9.60;99.90
23801;DHT22;12081;48.614;10.226;2023-10-31T17:16:03;9.30;99.90
23801;DHT22;12081;48.614;10.226;2023-10-31T17:18:48;9.30;99.90
23801;DHT22;12081;48.614;10.226;2023-10-31T17:21:32;9.30;99.90